WICT2: Wichita River At Wichita Falls, TX

Data processed at Fri Jan 05 2018 23:57


All information presented herein is the property of the government of the United States of America and may be revised or deleted at any time without prior notice.
Dissemination of this information without the expressed written consent of the Public Affairs Office, Tulsa District U.S. Army Corps of Engineers is strictly prohibited.
These data are gathered electronically and, as presented, have not undergone any form of quality control. These data are not guaranteed to be valid or correct.
Go to home page.
Go to station list.

Upstream stations:

Downstream station:
Previous Day
Next Day
Current Day
    
SHEF ID:       WICT2     Wichita Rv at Wichita Falls, TX
STATION TYPE:  

               PRECIP     STAGE  RIV-FLOW  WTR-TEMP   CONDUCT  BAT-LOAD
                   in        ft       cfs         F   umho/cm      volt
              Ccp-Rev   Ccp-Rev   Ccp-Rev   Ccp-Rev   Ccp-Rev   Ccp-Rev
(US/Central)
01/03 00:00      0.00      2.56        29     31.64      5548     12.49
01/03 01:00      0.00      2.55        28     31.64      5555     12.41
01/03 02:00      0.00      2.53        27     31.69      5560     12.41
01/03 03:00      0.00      2.52        26     31.73      5569     12.41
01/03 04:00      0.00      2.51        25     31.77      5581     12.41
01/03 05:00      0.00      2.50        25     31.84      5588     12.41
01/03 06:00      0.00      2.51        25     31.82      5601     12.41
01/03 07:00      0.00      2.52        26     31.80      5612     12.41
01/03 08:00      0.00      2.52        26     31.80      5624     12.41
01/03 09:00      0.00      2.52        26     31.82      5659     13.44
01/03 10:00      0.00      2.55        28     31.77      5663     13.76
01/03 11:00      0.00      2.57        30     31.78      5660     13.84
01/03 12:00      0.00      2.58        30     31.98      5638     13.84
01/03 13:00      0.00      2.59        31     32.36      5613     13.92
01/03 14:00      0.00      2.60        32     32.77      5580     13.84
01/03 15:00      0.00      2.61        33     33.26      5544     13.68
01/03 16:00      0.00      2.60        32     33.62      5514     13.37
01/03 17:00      0.00      2.61        33     33.75      5504     13.05
01/03 18:00      0.00      2.62        33     33.64      5502     12.81
01/03 19:00      0.00      2.62        33     33.42      5502     12.73
01/03 20:00      0.00      2.62        33     33.28      5487     12.65
01/03 21:00      0.00      2.61        33     33.12      5473     12.65
01/03 22:00      0.00      2.60        32     32.97      5467      ----
01/03 23:00      0.00      2.59        31     32.85      5464     12.57